Time;durP1;ratioP1;P1;durP2;ratioP2;P2;SDS_P1;SDS_P2;PMS_P1;PMS_P2;Temp;Humidity;BMP_temperature;BMP_pressure;BME280_temperature;BME280_humidity;BME280_pressure;Samples;Min_cycle;Max_cycle;Signal;HPM_P1;HPM_P2
2022/07/13 00:01:51;;;;;;;1.63;0.70;;;20.40;87.50;;;;;;5074897;28;20629;-89
2022/07/13 00:04:16;;;;;;;1.63;0.80;;;20.40;87.90;;;;;;5075124;28;20054;-90
2022/07/13 00:06:42;;;;;;;0.88;0.60;;;20.30;88.10;;;;;;5074604;28;20025;-89
2022/07/13 00:09:08;;;;;;;0.85;0.57;;;20.30;88.20;;;;;;5057060;28;20017;-90
2022/07/13 00:11:33;;;;;;;2.08;0.80;;;20.20;88.40;;;;;;5057156;28;20484;-92
2022/07/13 00:13:59;;;;;;;1.02;0.80;;;20.20;88.70;;;;;;5074721;28;20034;-90
2022/07/13 00:16:24;;;;;;;2.83;1.05;;;20.20;88.90;;;;;;5056548;28;20371;-91
2022/07/13 00:18:50;;;;;;;3.60;0.80;;;20.10;89.30;;;;;;5056115;28;20519;-89
2022/07/13 00:21:16;;;;;;;3.88;0.80;;;20.10;89.30;;;;;;5056873;28;20079;-90
2022/07/13 00:23:42;;;;;;;0.73;0.50;;;20.10;89.20;;;;;;5055876;28;20449;-90
2022/07/13 00:26:09;;;;;;;1.02;0.57;;;20.10;88.90;;;;;;5052725;28;20033;-89
2022/07/13 00:28:34;;;;;;;1.92;0.60;;;20.10;89.00;;;;;;5054929;28;20120;-92
2022/07/13 00:31:00;;;;;;;1.50;0.70;;;20.10;89.10;;;;;;5051902;28;20143;-89
2022/07/13 00:33:26;;;;;;;1.02;0.70;;;20.10;89.20;;;;;;5054629;28;20081;-90
2022/07/13 00:35:51;;;;;;;0.65;0.55;;;20.10;89.40;;;;;;5036557;28;20033;-89
2022/07/13 00:38:17;;;;;;;0.50;0.50;;;20.10;89.60;;;;;;5044582;28;20477;-89
2022/07/13 00:40:42;;;;;;;0.55;0.43;;;20.20;89.50;;;;;;5037123;28;20470;-90
2022/07/13 00:43:08;;;;;;;1.90;0.90;;;20.20;89.40;;;;;;5042242;28;20048;-89
2022/07/13 00:45:34;;;;;;;1.50;0.73;;;20.20;89.50;;;;;;5045514;28;20040;-89
2022/07/13 00:48:01;;;;;;;1.73;0.40;;;20.30;88.70;;;;;;5040700;28;20025;-89
2022/07/13 00:50:26;;;;;;;0.47;0.47;;;20.30;88.30;;;;;;5063090;28;20086;-90
2022/07/13 00:52:52;;;;;;;2.17;0.50;;;20.30;87.60;;;;;;5048877;28;20029;-89
2022/07/13 00:55:18;;;;;;;0.60;0.50;;;20.30;87.40;;;;;;5066725;28;20053;-89
2022/07/13 00:57:44;;;;;;;0.75;0.65;;;20.20;87.90;;;;;;5065290;28;20036;-90
2022/07/13 01:00:14;;;;;;;1.40;0.47;;;20.20;88.60;;;;;;5052738;28;20029;-90
2022/07/13 01:02:41;;;;;;;0.77;0.50;;;20.20;88.20;;;;;;5070089;28;20024;-90
2022/07/13 01:05:09;;;;;;;2.15;0.82;;;20.20;88.40;;;;;;5062974;28;20091;-89
2022/07/13 01:07:34;;;;;;;0.88;0.60;;;20.20;88.00;;;;;;5072131;28;20433;-90
2022/07/13 01:10:05;;;;;;;0.57;0.50;;;20.20;88.20;;;;;;5056039;28;20056;-89
2022/07/13 01:12:32;;;;;;;0.90;0.60;;;20.20;88.20;;;;;;5073407;28;20035;-93
2022/07/13 01:14:58;;;;;;;0.75;0.50;;;20.10;88.40;;;;;;5055756;28;20036;-89
2022/07/13 01:17:25;;;;;;;1.15;0.65;;;20.10;88.10;;;;;;5073740;28;20036;-87
2022/07/13 01:19:50;;;;;;;1.05;0.50;;;20.10;87.90;;;;;;5055264;28;20101;-90
2022/07/13 01:22:21;;;;;;;2.00;0.50;;;20.10;88.00;;;;;;5056160;28;20437;-89
2022/07/13 01:24:48;;;;;;;1.15;0.45;;;20.10;88.20;;;;;;5069707;28;20171;-89
2022/07/13 01:27:15;;;;;;;0.98;0.52;;;20.10;88.30;;;;;;5060373;28;20017;-89
2022/07/13 01:29:41;;;;;;;0.80;0.60;;;20.10;88.10;;;;;;5055515;28;20051;-89
2022/07/13 01:32:07;;;;;;;0.52;0.40;;;20.20;88.10;;;;;;5042148;28;20025;-90
2022/07/13 01:34:32;;;;;;;1.85;0.60;;;20.10;88.10;;;;;;5051777;28;20032;-90
2022/07/13 01:36:59;;;;;;;0.30;0.30;;;20.10;88.10;;;;;;5057957;28;20021;-89
2022/07/13 01:39:25;;;;;;;0.82;0.43;;;20.10;88.50;;;;;;5056261;28;20461;-89
2022/07/13 01:41:51;;;;;;;0.50;0.40;;;20.10;88.50;;;;;;5055440;28;20098;-89
2022/07/13 01:44:17;;;;;;;0.50;0.50;;;20.00;88.70;;;;;;5058010;28;20030;-89
2022/07/13 01:46:43;;;;;;;0.80;0.57;;;20.00;89.30;;;;;;5051749;28;20039;-89
2022/07/13 01:49:09;;;;;;;0.73;0.50;;;20.10;88.90;;;;;;5059572;28;20025;-89
2022/07/13 01:51:34;;;;;;;1.95;0.50;;;20.10;88.70;;;;;;5055191;28;20454;-89
2022/07/13 01:54:00;;;;;;;2.28;1.02;;;20.20;88.80;;;;;;5056838;28;20079;-89
2022/07/13 01:56:26;;;;;;;1.40;0.70;;;20.10;88.50;;;;;;5059321;28;20032;-90
2022/07/13 01:58:52;;;;;;;1.15;0.50;;;20.20;88.60;;;;;;5073280;28;20064;-89
2022/07/13 02:01:17;;;;;;;0.63;0.50;;;20.20;88.50;;;;;;5057480;28;20041;-89
2022/07/13 02:03:43;;;;;;;0.52;0.50;;;20.20;88.50;;;;;;5058671;28;20025;-87
2022/07/13 02:06:09;;;;;;;1.42;0.50;;;20.20;88.60;;;;;;5059036;28;20040;-87
2022/07/13 02:08:34;;;;;;;2.13;0.65;;;20.20;88.60;;;;;;5059182;28;20030;-87
2022/07/13 02:11:00;;;;;;;1.10;0.57;;;20.20;88.50;;;;;;5059095;28;20025;-88
2022/07/13 02:13:26;;;;;;;2.05;0.60;;;20.20;88.40;;;;;;5059230;28;20021;-88
2022/07/13 02:15:51;;;;;;;2.00;0.55;;;20.10;88.10;;;;;;5058442;28;20055;-87
2022/07/13 02:18:17;;;;;;;1.30;0.60;;;20.10;87.90;;;;;;5076622;28;20480;-87
2022/07/13 02:20:43;;;;;;;1.08;0.50;;;20.00;88.70;;;;;;5058197;28;20544;-88
2022/07/13 02:23:09;;;;;;;1.40;0.60;;;20.00;88.00;;;;;;5076729;28;20023;-88
2022/07/13 02:25:37;;;;;;;1.70;0.60;;;20.00;87.80;;;;;;5058750;28;20082;-88
2022/07/13 02:28:04;;;;;;;2.03;0.50;;;20.00;87.90;;;;;;5045022;28;20030;-88
2022/07/13 02:30:30;;;;;;;0.82;0.70;;;19.90;88.20;;;;;;5055035;28;20025;-88
2022/07/13 02:32:56;;;;;;;0.93;0.70;;;19.90;88.30;;;;;;5060020;28;20016;-87
2022/07/13 02:35:21;;;;;;;1.42;0.50;;;19.90;88.80;;;;;;5066524;28;20032;-88
2022/07/13 02:37:47;;;;;;;0.93;0.52;;;19.70;88.90;;;;;;5052227;28;20054;-87
2022/07/13 02:40:13;;;;;;;0.60;0.60;;;19.60;89.50;;;;;;5075658;28;20029;-87
2022/07/13 02:42:39;;;;;;;1.85;0.50;;;19.60;90.00;;;;;;5057684;28;20028;-87
2022/07/13 02:45:06;;;;;;;0.50;0.50;;;19.50;90.20;;;;;;5057395;28;20040;-87
2022/07/13 02:47:32;;;;;;;1.48;0.68;;;19.50;90.40;;;;;;5058139;28;20140;-91
2022/07/13 02:49:57;;;;;;;0.95;0.55;;;19.50;90.50;;;;;;5057436;28;20524;-87
2022/07/13 02:52:23;;;;;;;0.98;0.55;;;19.50;90.50;;;;;;5053808;28;20044;-87
2022/07/13 02:54:48;;;;;;;0.68;0.50;;;19.40;90.60;;;;;;5062919;28;20029;-88
2022/07/13 02:57:14;;;;;;;0.95;0.60;;;19.40;90.70;;;;;;5053363;28;20035;-87
2022/07/13 02:59:40;;;;;;;2.17;0.80;;;19.20;90.90;;;;;;5057300;28;20029;-87
2022/07/13 03:02:06;;;;;;;1.55;1.00;;;19.10;91.10;;;;;;5055816;28;20021;-87
2022/07/13 03:04:33;;;;;;;0.60;0.57;;;19.10;91.80;;;;;;5056356;28;20546;-92
2022/07/13 03:06:59;;;;;;;0.93;0.70;;;19.10;91.60;;;;;;5056903;28;20500;-87
2022/07/13 03:09:24;;;;;;;0.98;0.52;;;19.10;91.80;;;;;;5057915;28;20025;-87
2022/07/13 03:11:50;;;;;;;1.17;0.55;;;19.10;91.80;;;;;;5053944;28;20055;-86
2022/07/13 03:14:16;;;;;;;1.05;0.73;;;19.10;91.80;;;;;;5057612;28;20040;-88
2022/07/13 03:16:42;;;;;;;1.30;0.68;;;19.10;91.90;;;;;;5075067;28;20057;-86
2022/07/13 03:19:08;;;;;;;2.63;0.70;;;19.00;91.80;;;;;;5076100;28;20021;-86
2022/07/13 03:21:34;;;;;;;0.95;0.77;;;19.00;91.80;;;;;;5068014;28;20507;-87
2022/07/13 03:23:59;;;;;;;1.67;0.70;;;18.90;91.80;;;;;;5057910;28;20024;-85
2022/07/13 03:26:25;;;;;;;1.88;0.70;;;18.80;92.00;;;;;;5047890;28;20075;-86
2022/07/13 03:28:51;;;;;;;0.98;0.68;;;18.70;92.40;;;;;;5053989;28;20167;-86
2022/07/13 03:31:17;;;;;;;1.10;0.80;;;18.70;92.70;;;;;;5046698;28;20017;-87
2022/07/13 03:33:44;;;;;;;2.58;1.25;;;18.70;93.00;;;;;;5057218;28;20024;-87
2022/07/13 03:36:09;;;;;;;0.82;0.75;;;18.60;93.20;;;;;;5075498;28;20473;-87
2022/07/13 03:38:36;;;;;;;1.33;0.82;;;18.40;93.60;;;;;;5056937;28;20086;-87
2022/07/13 03:41:02;;;;;;;1.58;0.80;;;18.30;93.90;;;;;;5057491;28;20046;-86
2022/07/13 03:43:27;;;;;;;1.63;1.05;;;18.30;94.10;;;;;;5075758;28;20048;-87
2022/07/13 03:45:53;;;;;;;1.42;0.90;;;18.20;94.40;;;;;;5056744;28;20086;-87
2022/07/13 03:48:19;;;;;;;0.85;0.60;;;18.20;94.60;;;;;;5075131;28;20032;-87
2022/07/13 03:50:45;;;;;;;1.80;0.70;;;18.20;94.60;;;;;;5074573;28;20028;-86
2022/07/13 03:53:11;;;;;;;0.80;0.70;;;18.30;94.70;;;;;;5057454;28;20028;-86
2022/07/13 03:55:38;;;;;;;2.30;0.60;;;18.30;94.80;;;;;;5056987;28;20382;-87
2022/07/13 03:58:04;;;;;;;0.70;0.60;;;18.40;94.70;;;;;;5061426;28;20101;-86
2022/07/13 04:00:31;;;;;;;1.08;0.63;;;18.40;94.50;;;;;;5044314;28;20454;-85
2022/07/13 04:02:57;;;;;;;2.28;0.93;;;18.30;94.10;;;;;;5041482;28;20571;-86
2022/07/13 04:05:23;;;;;;;1.13;0.80;;;18.40;94.00;;;;;;5049516;28;20029;-86
2022/07/13 04:07:49;;;;;;;2.88;0.80;;;18.50;94.20;;;;;;5048098;28;20477;-87
2022/07/13 04:10:15;;;;;;;1.30;0.70;;;18.50;94.40;;;;;;5057021;28;20078;-87
2022/07/13 04:12:42;;;;;;;1.17;0.80;;;18.50;94.30;;;;;;5057741;28;20021;-86
2022/07/13 04:15:08;;;;;;;3.05;0.77;;;18.60;94.20;;;;;;5051134;28;20060;-86
2022/07/13 04:17:33;;;;;;;2.22;0.60;;;18.70;94.20;;;;;;5062938;28;20075;-87
2022/07/13 04:19:59;;;;;;;1.77;0.82;;;18.70;94.60;;;;;;5074553;28;20039;-86
2022/07/13 04:22:25;;;;;;;0.80;0.77;;;18.80;94.20;;;;;;5040507;28;20108;-86
2022/07/13 04:24:50;;;;;;;0.80;0.70;;;18.80;94.40;;;;;;5053957;28;20037;-86
2022/07/13 04:27:16;;;;;;;0.90;0.73;;;18.80;94.40;;;;;;5037028;28;20025;-87
2022/07/13 04:29:41;;;;;;;2.70;0.75;;;18.70;94.60;;;;;;5056954;28;20093;-87
2022/07/13 04:32:07;;;;;;;0.80;0.63;;;18.70;94.60;;;;;;5074266;28;20021;-87
2022/07/13 04:34:33;;;;;;;1.98;0.63;;;18.70;94.60;;;;;;5056009;28;20420;-88
2022/07/13 04:36:58;;;;;;;2.35;0.82;;;18.70;94.30;;;;;;5074233;28;20028;-86
2022/07/13 04:39:24;;;;;;;1.13;0.77;;;18.80;94.10;;;;;;5056441;28;20027;-86
2022/07/13 04:41:49;;;;;;;1.65;0.60;;;18.80;94.20;;;;;;5074419;28;20078;-87
2022/07/13 04:44:15;;;;;;;0.70;0.68;;;18.80;94.10;;;;;;5056380;28;20140;-86
2022/07/13 04:46:40;;;;;;;0.90;0.68;;;18.80;94.20;;;;;;5055881;28;20040;-87
2022/07/13 04:49:06;;;;;;;1.75;0.85;;;18.80;94.10;;;;;;5056668;28;20496;-87
2022/07/13 04:51:35;;;;;;;3.22;0.75;;;18.80;94.20;;;;;;5073845;28;20020;-94
2022/07/13 04:54:01;;;;;;;1.00;0.60;;;18.90;94.20;;;;;;5074169;28;20025;-86
2022/07/13 04:56:27;;;;;;;0.93;0.52;;;18.90;94.20;;;;;;5056341;28;20020;-87
2022/07/13 04:58:53;;;;;;;0.90;0.70;;;19.00;94.40;;;;;;5070300;28;20028;-86
2022/07/13 05:01:18;;;;;;;2.15;0.82;;;19.00;94.40;;;;;;5054253;28;20468;-86
2022/07/13 05:03:44;;;;;;;4.63;1.10;;;19.10;94.30;;;;;;5044904;28;20115;-86
2022/07/13 05:06:10;;;;;;;2.17;0.70;;;19.10;93.90;;;;;;5036552;28;20036;-86
2022/07/13 05:08:35;;;;;;;1.55;0.75;;;19.10;93.90;;;;;;5053864;28;20453;-86
2022/07/13 05:11:02;;;;;;;2.83;0.73;;;19.10;93.90;;;;;;5069091;28;20029;-86
2022/07/13 05:13:27;;;;;;;1.20;0.77;;;19.10;94.00;;;;;;5044994;28;20027;-87
2022/07/13 05:15:53;;;;;;;4.07;0.80;;;19.20;93.80;;;;;;5055262;28;20135;-86
2022/07/13 05:18:18;;;;;;;1.90;0.70;;;19.10;93.30;;;;;;5040520;28;20116;-87
2022/07/13 05:20:44;;;;;;;2.50;0.60;;;19.20;93.10;;;;;;5054916;28;20025;-87
2022/07/13 05:23:10;;;;;;;0.73;0.60;;;19.20;92.80;;;;;;5055747;28;20051;-88
2022/07/13 05:25:35;;;;;;;1.70;0.70;;;19.30;92.80;;;;;;5063379;28;20029;-88
2022/07/13 05:28:03;;;;;;;2.00;0.60;;;19.40;93.00;;;;;;5066898;28;20025;-87
2022/07/13 05:30:29;;;;;;;1.38;0.60;;;19.50;93.00;;;;;;5045682;28;20437;-87
2022/07/13 05:32:55;;;;;;;3.03;0.70;;;19.50;92.90;;;;;;5075856;28;20017;-88
2022/07/13 05:35:21;;;;;;;0.75;0.70;;;19.60;92.50;;;;;;5050310;28;20111;-87
2022/07/13 05:37:47;;;;;;;1.38;0.50;;;19.70;92.60;;;;;;5080098;28;20020;-88
2022/07/13 05:40:13;;;;;;;1.08;0.60;;;19.70;92.30;;;;;;5047888;28;20029;-87
2022/07/13 05:42:39;;;;;;;0.68;0.60;;;19.80;92.20;;;;;;5042102;28;20124;-88
2022/07/13 05:45:05;;;;;;;2.47;0.50;;;19.80;92.10;;;;;;5051473;28;20080;-87
2022/07/13 05:47:31;;;;;;;1.52;0.57;;;19.90;91.90;;;;;;5042961;28;20083;-87
2022/07/13 05:49:56;;;;;;;3.90;0.68;;;20.00;92.00;;;;;;5055028;28;20029;-87
2022/07/13 05:52:22;;;;;;;2.47;0.73;;;20.10;92.10;;;;;;5063878;28;20029;-88
2022/07/13 05:54:48;;;;;;;1.85;0.73;;;20.20;91.60;;;;;;5043207;28;20519;-87
2022/07/13 05:57:13;;;;;;;3.65;0.95;;;20.20;91.50;;;;;;5049243;28;20032;-87
2022/07/13 05:59:39;;;;;;;2.00;0.60;;;20.30;91.50;;;;;;5054236;28;20443;-87
2022/07/13 06:02:05;;;;;;;1.20;0.35;;;20.40;91.40;;;;;;5062460;28;20107;-88
2022/07/13 06:04:30;;;;;;;4.03;0.65;;;20.50;91.20;;;;;;5053309;28;20033;-87
2022/07/13 06:06:56;;;;;;;3.88;0.60;;;20.50;91.00;;;;;;5054489;28;20088;-87
2022/07/13 06:09:22;;;;;;;3.65;1.00;;;20.70;90.60;;;;;;5059593;28;20021;-87
2022/07/13 06:11:47;;;;;;;3.55;0.98;;;20.70;90.50;;;;;;5051277;28;20543;-88
2022/07/13 06:14:13;;;;;;;1.02;0.82;;;20.70;90.60;;;;;;5062393;28;20092;-87
2022/07/13 06:16:39;;;;;;;1.58;0.80;;;20.80;90.40;;;;;;5060909;28;20067;-87
2022/07/13 06:19:04;;;;;;;2.65;0.70;;;20.80;90.60;;;;;;5062109;28;20028;-87
2022/07/13 06:21:30;;;;;;;2.72;0.80;;;20.90;90.40;;;;;;5062047;28;20466;-87
2022/07/13 06:23:56;;;;;;;1.85;0.77;;;21.00;90.20;;;;;;5079351;28;20099;-87
2022/07/13 06:26:22;;;;;;;3.50;0.82;;;21.10;90.10;;;;;;5079446;28;20072;-86
2022/07/13 06:28:47;;;;;;;2.00;0.95;;;21.20;90.20;;;;;;5042076;28;20027;-87
2022/07/13 06:31:13;;;;;;;1.45;1.30;;;21.20;90.30;;;;;;5041918;28;20075;-87
2022/07/13 06:33:41;;;;;;;1.65;0.80;;;21.30;90.40;;;;;;5078788;28;20115;-87
2022/07/13 06:36:07;;;;;;;2.78;0.80;;;21.30;90.20;;;;;;5065596;28;20025;-87
2022/07/13 06:38:33;;;;;;;4.07;1.20;;;21.40;90.30;;;;;;5076900;28;20035;-88
2022/07/13 06:40:59;;;;;;;3.70;0.98;;;21.40;90.10;;;;;;5072028;28;20381;-87
2022/07/13 06:43:25;;;;;;;2.28;0.88;;;21.50;90.10;;;;;;5056636;28;20025;-88
2022/07/13 06:45:51;;;;;;;1.10;0.80;;;21.50;90.00;;;;;;5049805;28;20079;-88
2022/07/13 06:48:16;;;;;;;2.78;0.90;;;21.50;90.10;;;;;;5043669;28;20029;-87
2022/07/13 06:50:42;;;;;;;5.20;1.10;;;21.60;90.30;;;;;;5074615;28;20084;-87
2022/07/13 06:53:08;;;;;;;1.77;0.63;;;21.60;90.30;;;;;;5052675;28;20017;-88
2022/07/13 06:55:34;;;;;;;1.48;1.00;;;21.70;90.30;;;;;;5056741;28;20155;-88
2022/07/13 06:57:59;;;;;;;3.03;1.15;;;21.70;90.10;;;;;;5044100;28;20028;-87
2022/07/13 07:00:25;;;;;;;2.60;0.77;;;21.80;90.00;;;;;;5075938;28;20036;-88
2022/07/13 07:02:51;;;;;;;3.05;1.02;;;21.80;89.60;;;;;;5038119;28;20021;-88
2022/07/13 07:05:16;;;;;;;3.13;0.85;;;21.90;89.30;;;;;;5047761;28;20029;-86
2022/07/13 07:07:42;;;;;;;2.92;1.05;;;22.00;89.20;;;;;;5040703;28;20033;-87
2022/07/13 07:10:09;;;;;;;5.00;0.95;;;22.00;89.70;;;;;;5058669;28;20052;-86
2022/07/13 07:12:35;;;;;;;2.78;1.00;;;22.10;90.00;;;;;;5074035;28;20024;-86
2022/07/13 07:15:02;;;;;;;7.70;2.55;;;22.10;89.70;;;;;;5051795;28;20397;-86
2022/07/13 07:17:28;;;;;;;4.10;1.48;;;22.20;89.70;;;;;;5057976;28;20055;-86
2022/07/13 07:20:03;;;;;;;1.95;0.90;;;22.30;90.10;;;;;;5057802;28;20021;-87
2022/07/13 07:22:29;;;;;;;5.97;1.40;;;22.40;90.40;;;;;;5076154;28;20029;-87
2022/07/13 07:24:56;;;;;;;5.47;1.17;;;22.50;90.20;;;;;;5057307;28;20172;-85
2022/07/13 07:27:22;;;;;;;1.30;1.20;;;22.50;89.30;;;;;;5076067;28;20480;-86
2022/07/13 07:29:48;;;;;;;2.88;1.00;;;22.50;89.50;;;;;;5057942;28;20381;-88
2022/07/13 07:32:13;;;;;;;5.47;1.10;;;22.60;89.40;;;;;;5058119;28;20032;-87
2022/07/13 07:34:39;;;;;;;5.07;1.10;;;22.60;90.20;;;;;;5057363;28;20043;-90
2022/07/13 07:37:04;;;;;;;2.45;1.17;;;22.60;90.20;;;;;;5051122;28;20029;-86
2022/07/13 07:39:30;;;;;;;2.78;0.90;;;22.60;90.20;;;;;;5053177;28;20521;-87
2022/07/13 07:41:56;;;;;;;5.13;1.05;;;22.70;90.10;;;;;;5058384;28;20031;-86
2022/07/13 07:44:22;;;;;;;3.53;0.90;;;22.60;89.80;;;;;;5038709;28;20033;-87
2022/07/13 07:46:48;;;;;;;5.07;1.10;;;22.60;89.70;;;;;;5056859;28;20032;-87
2022/07/13 07:49:14;;;;;;;2.80;0.95;;;22.60;89.50;;;;;;5057081;28;20086;-86
2022/07/13 07:51:40;;;;;;;4.85;1.38;;;22.50;89.80;;;;;;5055978;28;20492;-86
2022/07/13 07:54:05;;;;;;;4.38;1.20;;;22.50;90.00;;;;;;5057146;28;20031;-87
2022/07/13 07:56:31;;;;;;;2.60;1.10;;;22.50;90.10;;;;;;5072224;28;20024;-88
2022/07/13 07:58:57;;;;;;;3.03;1.40;;;22.50;90.10;;;;;;5039554;28;20021;-86
2022/07/13 08:01:23;;;;;;;4.78;1.10;;;22.40;90.00;;;;;;5063933;28;20480;-86
2022/07/13 08:03:49;;;;;;;6.00;1.38;;;22.50;90.60;;;;;;5055263;28;20462;-86
2022/07/13 08:06:16;;;;;;;1.58;1.00;;;22.50;91.00;;;;;;5073839;28;20036;-86
2022/07/13 08:08:42;;;;;;;3.13;1.20;;;22.60;91.20;;;;;;5069920;28;20017;-86
2022/07/13 08:11:09;;;;;;;2.03;1.15;;;22.70;90.90;;;;;;5062764;28;20057;-86
2022/07/13 08:13:35;;;;;;;6.50;1.30;;;22.80;90.80;;;;;;5045017;28;20025;-87
2022/07/13 08:16:02;;;;;;;2.63;1.25;;;22.90;90.60;;;;;;5055679;28;20139;-86
2022/07/13 08:18:28;;;;;;;3.50;1.10;;;22.90;90.50;;;;;;5054811;28;20017;-87
2022/07/13 08:20:54;;;;;;;2.72;1.00;;;23.00;90.10;;;;;;5055412;28;20355;-87
2022/07/13 08:26:03;;;;;;;4.05;1.20;;;22.80;90.00;;;;;;5071309;28;20086;-86
2022/07/13 08:28:29;;;;;;;1.35;0.93;;;22.80;90.00;;;;;;5049589;28;20025;-86
2022/07/13 08:30:55;;;;;;;3.35;1.05;;;22.80;88.10;;;;;;5048778;28;20028;-86
2022/07/13 08:38:34;;;;;;;4.22;1.08;;;22.90;88.70;;;;;;5063890;28;20086;-87
2022/07/13 08:38:50;;;;;;;3.10;0.90;;;23.00;87.30;;;;;;5068912;28;20036;-86
2022/07/13 08:41:15;;;;;;;3.85;1.00;;;23.10;86.60;;;;;;5042248;28;20025;-86
2022/07/13 08:43:41;;;;;;;2.70;0.80;;;23.10;86.00;;;;;;5046934;28;20067;-86
2022/07/13 08:46:08;;;;;;;3.40;1.20;;;23.30;84.80;;;;;;5065603;28;20052;-88
2022/07/13 08:48:37;;;;;;;1.45;1.00;;;23.40;84.80;;;;;;5047184;28;20056;-87
2022/07/13 08:51:05;;;;;;;1.90;0.70;;;23.40;83.00;;;;;;5055719;28;20027;-86
2022/07/13 08:53:30;;;;;;;1.58;0.60;;;23.60;80.30;;;;;;5054863;28;20445;-86
2022/07/13 08:55:57;;;;;;;1.00;0.50;;;23.60;78.50;;;;;;5049681;28;20033;-86
2022/07/13 08:58:23;;;;;;;0.82;0.50;;;23.60;77.30;;;;;;5052441;28;20035;-86
2022/07/13 09:00:49;;;;;;;2.00;0.60;;;23.60;76.60;;;;;;5062251;28;20025;-86
2022/07/13 09:06:44;;;;;;;;;;;23.60;79.20;;;;;;5060925;28;20051;-87
2022/07/13 09:09:30;;;;;;;0.55;0.50;;;23.50;78.90;;;;;;5052760;28;19911;-87
2022/07/13 09:12:12;;;;;;;1.88;0.60;;;23.60;79.20;;;;;;5036840;28;20477;-86
2022/07/13 09:14:38;;;;;;;2.92;0.70;;;23.60;79.30;;;;;;5060029;28;20033;-86
2022/07/13 09:17:04;;;;;;;2.33;0.70;;;23.60;78.80;;;;;;5055049;28;20437;-86
2022/07/13 09:19:38;;;;;;;2.45;0.70;;;23.80;79.40;;;;;;5073116;28;20063;-87
2022/07/13 09:22:12;;;;;;;4.03;0.90;;;23.80;80.30;;;;;;5055325;28;20484;-86
2022/07/13 09:24:45;;;;;;;1.63;0.73;;;23.80;80.30;;;;;;5054548;28;20131;-86
2022/07/13 09:27:12;;;;;;;1.83;0.70;;;23.90;80.20;;;;;;5044359;28;20052;-87
2022/07/13 09:29:38;;;;;;;2.47;0.85;;;24.00;79.90;;;;;;5037585;28;20017;-86
2022/07/13 09:32:13;;;;;;;3.78;0.90;;;24.20;80.20;;;;;;5042076;28;20542;-87
2022/07/13 09:34:46;;;;;;;1.80;0.85;;;24.30;80.20;;;;;;5046167;28;20485;-86
2022/07/13 09:37:13;;;;;;;7.72;1.58;;;24.40;79.10;;;;;;5046599;28;20117;-87
2022/07/13 09:39:58;;;;;;;12.95;1.23;;;24.60;77.80;;;;;;5045323;28;20029;-86
2022/07/13 09:42:31;;;;;;;3.20;0.73;;;24.70;77.00;;;;;;5061989;28;20032;-86
2022/07/13 09:47:49;;;;;;;2.15;0.63;;;25.00;76.90;;;;;;5072512;28;20074;-86
2022/07/13 09:50:17;;;;;;;1.20;0.50;;;25.00;76.20;;;;;;5072313;28;20027;-87
2022/07/13 09:52:44;;;;;;;1.35;0.52;;;25.00;74.50;;;;;;5051063;28;20040;-87
2022/07/13 09:55:12;;;;;;;2.25;0.50;;;25.20;74.70;;;;;;5051035;28;20029;-87
2022/07/13 09:57:46;;;;;;;0.52;0.50;;;25.20;73.80;;;;;;5052812;28;20016;-87
2022/07/13 10:00:14;;;;;;;1.13;0.73;;;25.30;72.20;;;;;;5071834;28;20099;-87
2022/07/13 10:03:08;;;;;;;;;;;;;;;;;;;;;
2022/07/13 10:05:35;;;;;;;1.85;0.50;;;25.40;70.60;;;;;;5070692;28;20033;-90
2022/07/13 10:08:01;;;;;;;2.47;0.68;;;25.40;69.60;;;;;;5071723;28;20020;-87
2022/07/13 10:10:27;;;;;;;3.50;0.60;;;25.50;70.00;;;;;;5054448;28;20433;-87
2022/07/13 10:12:54;;;;;;;1.00;0.50;;;25.50;69.40;;;;;;5054216;28;20028;-87
2022/07/13 10:15:21;;;;;;;1.15;0.55;;;25.50;68.90;;;;;;5071167;28;20088;-88
2022/07/13 10:17:48;;;;;;;1.45;0.40;;;25.60;68.40;;;;;;5071778;28;20052;-87
2022/07/13 10:20:16;;;;;;;1.10;0.50;;;25.70;68.20;;;;;;5051129;28;20032;-89
2022/07/13 10:22:48;;;;;;;0.70;0.70;;;25.70;67.10;;;;;;5054051;28;20021;-87
2022/07/13 10:25:13;;;;;;;;;;;25.70;67.60;;;;;;5053412;28;20032;-87
2022/07/13 10:27:42;;;;;;;1.38;0.57;;;25.70;66.40;;;;;;5054638;28;19908;-87
2022/07/13 10:30:18;;;;;;;0.85;0.50;;;25.70;66.90;;;;;;5037486;28;20371;-87
2022/07/13 10:32:45;;;;;;;0.90;0.50;;;25.60;67.70;;;;;;5050029;28;20058;-87
2022/07/13 10:35:20;;;;;;;0.60;0.40;;;25.70;66.90;;;;;;5058366;28;20488;-88
2022/07/13 10:37:58;;;;;;;0.77;0.45;;;25.70;65.80;;;;;;5051787;28;20082;-88
2022/07/13 10:40:26;;;;;;;1.33;0.55;;;25.70;66.10;;;;;;5061748;28;20187;-87
2022/07/13 10:42:54;;;;;;;1.58;0.50;;;25.70;65.80;;;;;;5038291;28;20018;-87
2022/07/13 10:45:38;;;;;;;1.50;0.70;;;25.70;65.60;;;;;;5039596;28;20094;-87
2022/07/13 10:48:30;;;;;;;1.10;0.40;;;25.80;65.40;;;;;;5058279;28;20025;-87
2022/07/13 10:50:57;;;;;;;0.45;0.40;;;25.80;60.80;;;;;;5041123;28;20120;-87
2022/07/13 10:53:40;;;;;;;1.08;0.30;;;26.00;59.40;;;;;;5057700;28;20455;-87
2022/07/13 10:56:17;;;;;;;0.77;0.40;;;26.20;58.70;;;;;;5055284;28;20610;-87
2022/07/13 10:58:44;;;;;;;2.67;0.30;;;26.10;59.30;;;;;;5066825;28;20028;-88
2022/07/13 11:01:44;;;;;;;0.95;0.38;;;26.30;58.10;;;;;;5049974;28;20017;-88
2022/07/13 11:04:13;;;;;;;4.05;0.52;;;26.40;56.40;;;;;;5052541;28;20115;-87
2022/07/13 11:06:39;;;;;;;0.80;0.32;;;26.60;56.20;;;;;;5041368;28;20033;-87
2022/07/13 11:09:21;;;;;;;0.40;0.25;;;26.70;55.90;;;;;;5054258;28;20028;-87
2022/07/13 11:11:48;;;;;;;1.48;0.20;;;26.80;53.10;;;;;;5043204;28;20071;-87
2022/07/13 11:14:41;;;;;;;1.00;0.35;;;26.90;53.60;;;;;;5044869;28;20422;-88
2022/07/13 11:17:14;;;;;;;0.80;0.40;;;26.80;55.30;;;;;;5058042;28;20124;-88
2022/07/13 11:19:52;;;;;;;0.43;0.30;;;26.70;56.80;;;;;;5051194;28;20088;-88
2022/07/13 11:22:19;;;;;;;0.52;0.30;;;26.70;51.20;;;;;;5047739;28;20017;-88
2022/07/13 11:25:14;;;;;;;4.93;0.77;;;27.00;52.40;;;;;;5052089;28;20078;-88
2022/07/13 11:28:04;;;;;;;0.57;0.30;;;27.20;53.30;;;;;;5055518;28;20052;-88
2022/07/13 11:30:34;;;;;;;0.30;0.30;;;27.30;56.10;;;;;;5042981;28;20029;-88
2022/07/13 11:33:00;;;;;;;2.08;0.30;;;27.40;56.10;;;;;;5069110;28;20037;-88
2022/07/13 11:35:26;;;;;;;0.75;0.30;;;27.60;55.60;;;;;;5057637;28;20042;-88
2022/07/13 11:37:53;;;;;;;2.35;0.40;;;27.90;54.90;;;;;;5074155;28;20031;-88
2022/07/13 11:40:29;;;;;;;0.40;0.30;;;28.30;52.70;;;;;;5054194;28;20025;-88
2022/07/13 11:42:55;;;;;;;1.85;0.38;;;28.50;51.40;;;;;;5048338;28;20013;-87
2022/07/13 11:45:34;;;;;;;1.13;0.32;;;28.50;52.70;;;;;;5045439;28;20032;-88
2022/07/13 11:48:03;;;;;;;0.55;0.30;;;28.40;53.00;;;;;;5075067;28;20036;-88
2022/07/13 11:50:50;;;;;;;1.05;0.30;;;28.40;53.80;;;;;;5056844;28;20025;-87
2022/07/13 11:53:27;;;;;;;2.92;0.32;;;28.40;53.30;;;;;;5054812;28;20024;-86
2022/07/13 11:55:54;;;;;;;2.78;0.40;;;28.60;54.60;;;;;;5059017;28;20025;-88
2022/07/13 11:58:31;;;;;;;0.98;0.30;;;28.70;54.20;;;;;;5047561;28;20123;-87
2022/07/13 12:00:58;;;;;;;1.42;0.40;;;28.80;53.70;;;;;;5047354;28;20082;-88
2022/07/13 12:03:28;;;;;;;4.68;0.43;;;29.10;52.90;;;;;;5049982;28;20021;-87
2022/07/13 12:06:05;;;;;;;0.43;0.30;;;29.40;52.60;;;;;;5050727;28;20116;-87
2022/07/13 12:08:33;;;;;;;2.05;0.32;;;29.70;52.30;;;;;;5067815;28;20037;-88
2022/07/13 12:10:59;;;;;;;2.05;0.50;;;29.90;52.40;;;;;;5039607;28;20016;-88
2022/07/13 12:13:25;;;;;;;0.63;0.30;;;30.00;51.70;;;;;;5056560;28;20021;-87
2022/07/13 12:15:51;;;;;;;1.63;0.30;;;30.00;49.50;;;;;;5055570;28;20051;-87
2022/07/13 12:18:17;;;;;;;0.70;0.20;;;30.00;47.00;;;;;;5056267;28;20024;-88
2022/07/13 12:20:43;;;;;;;0.73;0.32;;;30.00;45.90;;;;;;5047988;28;20024;-87
2022/07/13 12:23:09;;;;;;;1.58;0.28;;;30.20;46.80;;;;;;5051343;28;20021;-88
2022/07/13 12:25:37;;;;;;;0.35;0.20;;;30.20;45.90;;;;;;5047722;28;20036;-88
2022/07/13 12:28:11;;;;;;;1.95;0.30;;;30.20;45.90;;;;;;5047030;28;20113;-89
2022/07/13 12:30:59;;;;;;;3.15;0.40;;;30.30;45.60;;;;;;5047231;28;20024;-87
2022/07/13 12:33:24;;;;;;;0.75;0.30;;;30.20;45.90;;;;;;5072984;28;20046;-88
2022/07/13 12:36:04;;;;;;;0.85;0.30;;;30.20;46.90;;;;;;5073816;28;20028;-88
2022/07/13 12:38:31;;;;;;;0.30;0.30;;;30.20;47.60;;;;;;5055765;28;20052;-87
2022/07/13 12:41:00;;;;;;;0.73;0.30;;;30.20;47.60;;;;;;5049877;28;20056;-87
2022/07/13 12:43:30;;;;;;;0.22;0.22;;;30.10;47.40;;;;;;5036563;28;20029;-87
2022/07/13 12:45:59;;;;;;;0.65;0.30;;;30.10;47.60;;;;;;5035884;28;20037;-88
2022/07/13 12:48:30;;;;;;;2.63;0.30;;;30.10;48.70;;;;;;5048910;28;20029;-88
2022/07/13 12:51:00;;;;;;;1.27;0.28;;;30.00;48.60;;;;;;5048089;28;20025;-87
2022/07/13 12:53:44;;;;;;;1.00;0.20;;;30.00;48.90;;;;;;5050561;28;20545;-87
2022/07/13 12:56:10;;;;;;;0.30;0.20;;;29.90;49.10;;;;;;5041527;28;20068;-87
2022/07/13 12:58:44;;;;;;;1.30;0.38;;;29.90;49.50;;;;;;5062045;28;20035;-88
2022/07/13 13:01:10;;;;;;;1.40;0.40;;;29.90;50.10;;;;;;5047302;28;20025;-87
2022/07/13 13:03:36;;;;;;;0.70;0.25;;;29.90;50.60;;;;;;5050044;28;20021;-88